Pendleton, New York
Current Conditions -  °F | °C
As of 3:11 AM on Tuesday 21 Oct 2014 (Local Time) from KIAG Reporting Station
Light Rain Light Rain  
Wind Chill: 51°   Ceiling: 1500
Heat Index: 51°   Visibility: 4mi
Dew Point: 49°   Wind: 5mph
Humidity: 92%   Direction: 340°NNW
Pressure: 29.77"   Gusts: NA
Location:  43.0772°N, 78.8339°W
Report Text: KIAG 210711Z AUTO 34004KT 4SM -RA BR SCT006 OVC015 11/09 A2977 RMK AO2 P0001 T01060094
Loading
Personal Weather Stations






























Interactive Weather Map
Tropical Storm Tracking
New forecast layout! Learn more

10-Day Weather Forecast

Advertisements
Track Severe Weather on mobile